Time;durP1;ratioP1;P1;durP2;ratioP2;P2;SDS_P1;SDS_P2;PMS_P1;PMS_P2;Temp;Humidity;BMP_temperature;BMP_pressure;BME280_temperature;BME280_humidity;BME280_pressure;Samples;Min_cycle;Max_cycle;Signal;HPM_P1;HPM_P2
2022/02/04 00:05:44;;;;;;;39.17;33.23;;;6.90;99.90;;;;;;5110885;27;20366;-82
2022/02/04 00:21:28;;;;;;;36.35;30.02;;;7.00;99.90;;;;;;5111489;28;20436;-82
2022/02/04 00:23:54;;;;;;;34.80;29.52;;;7.00;99.90;;;;;;5090784;28;20561;-81
2022/02/04 00:26:27;;;;;;;36.38;29.75;;;7.00;99.90;;;;;;5108066;28;20377;-82
2022/02/04 00:29:03;;;;;;;35.72;28.83;;;6.90;99.90;;;;;;5108681;28;20425;-81
2022/02/04 00:31:37;;;;;;;35.80;29.08;;;6.90;99.90;;;;;;5110594;28;20473;-82
2022/02/04 00:34:08;;;;;;;36.85;29.67;;;6.90;99.90;;;;;;5109662;28;20378;-82
2022/02/04 00:39:09;;;;;;;34.70;29.37;;;6.80;99.90;;;;;;5111371;28;20908;-81
2022/02/04 00:41:37;;;;;;;36.13;29.15;;;6.80;99.90;;;;;;5089592;28;20378;-81
2022/02/04 00:44:05;;;;;;;37.13;29.15;;;6.80;99.90;;;;;;5089279;28;20406;-82
2022/02/04 00:49:07;;;;;;;36.47;29.50;;;6.80;99.90;;;;;;5107714;28;20420;-81
2022/02/04 00:51:42;;;;;;;37.83;29.73;;;6.80;99.90;;;;;;5091916;28;20398;-81
2022/02/04 01:26:16;;;;;;;38.90;30.60;;;6.80;99.90;;;;;;5136106;27;20707;-82
2022/02/04 01:28:44;;;;;;;41.47;32.67;;;6.70;99.90;;;;;;5115401;27;20417;-84
2022/02/04 01:31:14;;;;;;;41.00;31.60;;;6.60;99.90;;;;;;5135098;27;20361;-82
2022/02/04 01:33:43;;;;;;;39.92;31.60;;;6.60;99.90;;;;;;5122063;27;20387;-84
2022/02/04 01:36:09;;;;;;;39.67;31.43;;;6.70;99.90;;;;;;5112991;28;20375;-82
2022/02/04 01:38:35;;;;;;;40.90;31.87;;;6.60;99.90;;;;;;5120962;27;20399;-82
2022/02/04 01:41:00;;;;;;;42.15;32.28;;;6.70;99.90;;;;;;5133737;27;20874;-83
2022/02/04 01:43:29;;;;;;;43.33;32.55;;;6.70;99.90;;;;;;5133733;27;20491;-82
2022/02/04 01:45:57;;;;;;;44.13;33.58;;;6.70;99.90;;;;;;5132812;27;20376;-82
2022/02/04 01:48:22;;;;;;;42.15;33.35;;;6.70;99.90;;;;;;5133361;27;20369;-82
2022/02/04 01:50:56;;;;;;;39.53;32.17;;;6.70;99.90;;;;;;5124109;27;20467;-82
2022/02/04 01:53:28;;;;;;;40.17;31.77;;;6.70;99.90;;;;;;5093841;28;20388;-82
2022/02/04 01:56:00;;;;;;;40.38;32.08;;;6.70;99.90;;;;;;5099484;28;20440;-82
2022/02/04 01:58:26;;;;;;;42.42;33.58;;;6.60;99.90;;;;;;5075066;28;20487;-82
2022/02/04 02:00:52;;;;;;;42.70;32.95;;;6.60;99.90;;;;;;5093551;28;20380;-81
2022/02/04 02:03:19;;;;;;;42.78;33.90;;;6.70;99.90;;;;;;5103891;28;20403;-82
2022/02/04 02:05:45;;;;;;;40.47;32.78;;;6.60;99.90;;;;;;5091799;28;20395;-81
2022/02/04 02:08:13;;;;;;;42.23;33.03;;;6.60;99.90;;;;;;5100547;28;20391;-82
2022/02/04 02:10:39;;;;;;;40.80;32.72;;;6.60;99.90;;;;;;5093265;28;20394;-81
2022/02/04 02:13:21;;;;;;;41.70;33.58;;;6.60;99.90;;;;;;5091367;28;20383;-82
2022/02/04 02:16:20;;;;;;;40.28;32.67;;;6.60;99.90;;;;;;5091701;28;20384;-82
2022/02/04 02:43:11;;;;;;;42.88;33.95;;;6.40;99.90;;;;;;5112833;28;20409;-82
2022/02/04 02:45:55;;;;;;;41.58;34.35;;;6.40;99.90;;;;;;5105728;28;20387;-82
2022/02/04 02:58:36;;;;;;;40.97;33.43;;;6.40;99.90;;;;;;5105585;28;20432;-82
2022/02/04 03:01:07;;;;;;;39.93;32.63;;;6.40;99.90;;;;;;5099897;28;20470;-82
2022/02/04 03:03:35;;;;;;;43.75;33.65;;;6.40;99.90;;;;;;5087001;28;20410;-81
2022/02/04 03:06:01;;;;;;;42.22;33.85;;;6.50;99.90;;;;;;5102395;28;20406;-81
2022/02/04 03:08:28;;;;;;;41.63;33.65;;;6.40;99.90;;;;;;5107668;28;20393;-81
2022/02/04 03:10:56;;;;;;;40.72;32.45;;;6.40;99.90;;;;;;5091857;28;20460;-81
2022/02/04 03:13:24;;;;;;;41.38;32.53;;;6.40;99.90;;;;;;5089860;28;20870;-81
2022/02/04 03:16:03;;;;;;;42.95;33.28;;;6.30;99.90;;;;;;5096160;28;20394;-81
2022/02/04 03:18:32;;;;;;;39.03;32.28;;;6.40;99.90;;;;;;5097216;28;20762;-82
2022/02/04 03:21:05;;;;;;;42.17;32.90;;;6.40;99.90;;;;;;5090081;28;20396;-81
2022/02/04 03:23:34;;;;;;;38.58;32.22;;;6.40;99.90;;;;;;5090273;28;20412;-81
2022/02/04 03:26:08;;;;;;;40.42;32.58;;;6.40;99.90;;;;;;5098387;28;20423;-81
2022/02/04 03:28:34;;;;;;;42.72;33.40;;;6.40;99.90;;;;;;5105659;28;20874;-81
2022/02/04 03:31:00;;;;;;;41.13;32.17;;;6.30;99.90;;;;;;5094206;28;20405;-80
2022/02/04 03:33:29;;;;;;;38.67;31.10;;;6.40;99.90;;;;;;5090239;28;20935;-81
2022/02/04 03:35:54;;;;;;;40.78;31.90;;;6.30;99.90;;;;;;5097282;28;20379;-81
2022/02/04 03:38:20;;;;;;;35.70;30.15;;;6.30;99.90;;;;;;5091409;28;20975;-82
2022/02/04 03:40:46;;;;;;;39.83;32.05;;;6.40;99.90;;;;;;5100233;28;20380;-81
2022/02/04 03:43:12;;;;;;;39.63;31.42;;;6.40;99.90;;;;;;5089248;28;20411;-81
2022/02/04 03:45:38;;;;;;;38.38;31.90;;;6.40;99.90;;;;;;5094995;28;20406;-81
2022/02/04 03:48:04;;;;;;;40.37;32.20;;;6.40;99.90;;;;;;5094071;28;20462;-80
2022/02/04 03:50:29;;;;;;;39.37;32.33;;;6.40;99.90;;;;;;5113580;28;20410;-80
2022/02/04 03:52:55;;;;;;;40.93;31.73;;;6.30;99.90;;;;;;5112807;28;20371;-80
2022/02/04 03:55:21;;;;;;;40.42;33.13;;;6.30;99.90;;;;;;5093346;28;20379;-80
2022/02/04 03:57:46;;;;;;;39.25;32.13;;;6.30;99.90;;;;;;5112901;28;20375;-81
2022/02/04 04:00:16;;;;;;;40.80;32.43;;;6.30;99.90;;;;;;5111269;28;20829;-81
2022/02/04 04:02:42;;;;;;;40.28;32.40;;;6.30;99.90;;;;;;5082236;28;20408;-81
2022/02/04 04:05:10;;;;;;;42.60;32.47;;;6.30;99.90;;;;;;5089588;28;20384;-80
2022/02/04 04:07:41;;;;;;;41.60;32.83;;;6.40;99.90;;;;;;5090615;28;20453;-81
2022/02/04 04:10:11;;;;;;;40.83;33.00;;;6.30;99.90;;;;;;5080865;28;20387;-81
2022/02/04 04:12:36;;;;;;;41.38;32.63;;;6.40;99.90;;;;;;5092370;28;20398;-81
2022/02/04 04:15:07;;;;;;;39.67;31.83;;;6.30;99.90;;;;;;5091880;28;20429;-80
2022/02/04 04:17:39;;;;;;;41.83;32.95;;;6.30;99.90;;;;;;5109326;28;20465;-81
2022/02/04 04:20:09;;;;;;;41.35;33.10;;;6.40;99.90;;;;;;5085464;28;20870;-81
2022/02/04 04:22:35;;;;;;;40.13;32.63;;;6.30;99.90;;;;;;5089118;28;20404;-81
2022/02/04 04:25:03;;;;;;;40.93;32.53;;;6.30;99.90;;;;;;5093886;28;20788;-81
2022/02/04 04:27:29;;;;;;;39.47;33.15;;;6.40;99.90;;;;;;5089596;28;20376;-81
2022/02/04 04:29:54;;;;;;;42.33;32.92;;;6.40;99.90;;;;;;5070891;28;20441;-81
2022/02/04 04:32:20;;;;;;;39.70;32.33;;;6.50;99.90;;;;;;5089135;28;20400;-81
2022/02/04 04:34:45;;;;;;;39.10;31.77;;;6.30;99.90;;;;;;5089022;28;20369;-82
2022/02/04 04:37:11;;;;;;;38.97;32.47;;;6.40;99.90;;;;;;5088978;28;20450;-81
2022/02/04 04:39:49;;;;;;;41.55;32.85;;;6.30;99.90;;;;;;5087557;28;20432;-82
2022/02/04 04:42:18;;;;;;;39.65;32.50;;;6.40;99.90;;;;;;5089215;28;20381;-81
2022/02/04 05:28:14;;;;;;;40.70;33.60;;;6.30;99.90;;;;;;5092662;28;20369;-82
2022/02/04 05:30:40;;;;;;;41.23;32.23;;;6.20;99.90;;;;;;5109357;28;21005;-81
2022/02/04 05:33:06;;;;;;;43.90;32.40;;;6.20;99.90;;;;;;5095038;28;20413;-81
2022/02/04 05:35:31;;;;;;;43.22;32.95;;;6.20;99.90;;;;;;5112616;28;20363;-81
2022/02/04 05:37:57;;;;;;;43.92;33.55;;;6.20;99.90;;;;;;5112436;28;20469;-81
2022/02/04 05:40:27;;;;;;;41.70;33.07;;;6.30;99.90;;;;;;5106614;28;20378;-80
2022/02/04 05:43:00;;;;;;;42.65;33.88;;;6.40;99.90;;;;;;5114593;28;20809;-80
2022/02/04 05:45:30;;;;;;;42.20;32.75;;;6.20;99.90;;;;;;5101195;27;20434;-81
2022/02/04 05:48:01;;;;;;;41.90;33.03;;;6.20;99.90;;;;;;5116597;27;20384;-80
2022/02/04 05:50:49;;;;;;;43.03;34.00;;;6.30;99.90;;;;;;5116777;27;20385;-80
2022/02/04 05:53:18;;;;;;;39.30;32.23;;;6.30;99.90;;;;;;5135447;27;20365;-80
2022/02/04 05:58:37;;;;;;;41.10;33.33;;;6.30;99.90;;;;;;5114073;28;20405;-81
2022/02/04 06:01:18;;;;;;;39.35;32.55;;;6.30;99.90;;;;;;5113786;28;20445;-81
2022/02/04 06:03:59;;;;;;;37.97;31.30;;;6.40;99.90;;;;;;5095346;28;20413;-82
2022/02/04 06:10:02;;;;;;;40.28;32.10;;;6.30;99.90;;;;;;5093019;28;20494;-80
2022/02/04 06:22:45;;;;;;;40.72;33.08;;;6.30;99.90;;;;;;5113354;28;20764;-81
2022/02/04 06:25:11;;;;;;;39.60;31.98;;;6.30;99.90;;;;;;5093741;28;20744;-81
2022/02/04 06:27:38;;;;;;;40.08;32.45;;;6.30;99.90;;;;;;5103655;28;20388;-81
2022/02/04 06:30:05;;;;;;;41.05;32.35;;;6.30;99.90;;;;;;5090110;28;20390;-81
2022/02/04 06:32:31;;;;;;;42.55;33.35;;;6.20;99.90;;;;;;5101704;28;20412;-81
2022/02/04 06:34:58;;;;;;;41.42;33.55;;;6.10;99.90;;;;;;5104665;28;20876;-81
2022/02/04 06:37:24;;;;;;;42.53;33.92;;;6.30;99.90;;;;;;5132066;27;20373;-81
2022/02/04 06:39:50;;;;;;;42.90;33.80;;;6.20;99.90;;;;;;5125489;27;20420;-81
2022/02/04 06:42:21;;;;;;;43.92;34.55;;;6.20;99.90;;;;;;5102355;28;20387;-81
2022/02/04 06:44:47;;;;;;;44.70;34.65;;;6.20;99.90;;;;;;5106371;28;20979;-81
2022/02/04 06:47:12;;;;;;;44.53;35.05;;;6.10;99.90;;;;;;5103952;28;20379;-81
2022/02/04 06:49:39;;;;;;;43.58;35.38;;;6.20;99.90;;;;;;5098677;28;20420;-81
2022/02/04 06:52:05;;;;;;;44.65;35.10;;;6.30;99.90;;;;;;5091471;28;20392;-81
2022/02/04 06:54:31;;;;;;;43.53;34.23;;;6.20;99.90;;;;;;5086106;28;20507;-80
2022/02/04 06:56:57;;;;;;;40.55;31.75;;;6.30;99.90;;;;;;5089986;28;20462;-80
2022/02/04 06:59:22;;;;;;;41.83;33.90;;;6.30;99.90;;;;;;5099990;28;20447;-82
2022/02/04 07:01:48;;;;;;;41.60;33.60;;;6.30;99.90;;;;;;5074933;28;20412;-81
2022/02/04 07:04:14;;;;;;;62.38;36.92;;;6.30;99.90;;;;;;5074959;28;20492;-81
2022/02/04 07:06:43;;;;;;;48.45;34.72;;;6.30;99.90;;;;;;5110745;28;20426;-80
2022/02/04 07:14:26;;;;;;;39.85;32.95;;;6.30;99.90;;;;;;5092783;28;20388;-81
2022/02/04 07:22:22;;;;;;;40.13;32.30;;;6.40;99.90;;;;;;5110874;28;20400;-81
2022/02/04 07:24:50;;;;;;;40.17;31.77;;;6.30;99.90;;;;;;5092679;28;20493;-80
2022/02/04 07:27:20;;;;;;;40.55;32.63;;;6.40;99.90;;;;;;5108341;28;20389;-81
2022/02/04 07:29:48;;;;;;;41.05;32.15;;;6.40;99.90;;;;;;5104586;28;20457;-81
2022/02/04 07:43:19;;;;;;;35.83;29.73;;;6.50;99.90;;;;;;5105491;28;20452;-81
2022/02/04 07:45:44;;;;;;;34.47;28.70;;;6.60;99.90;;;;;;5094940;28;20382;-81
2022/02/04 07:48:10;;;;;;;32.20;28.00;;;6.60;99.90;;;;;;5094437;28;20393;-81
2022/02/04 07:50:36;;;;;;;32.73;27.70;;;6.70;99.90;;;;;;5101272;28;20457;-80
2022/02/04 07:53:03;;;;;;;35.00;28.00;;;6.70;99.90;;;;;;5100823;28;20797;-81
2022/02/04 07:55:29;;;;;;;31.67;27.70;;;6.70;99.90;;;;;;5114455;28;20379;-81
2022/02/04 07:57:55;;;;;;;32.50;26.90;;;6.60;99.90;;;;;;5083347;28;20381;-82
2022/02/04 08:00:21;;;;;;;32.67;27.00;;;6.60;99.90;;;;;;5112210;28;20383;-82
2022/02/04 08:02:48;;;;;;;31.63;26.42;;;6.60;99.90;;;;;;5106621;28;20408;-82
2022/02/04 08:05:18;;;;;;;31.17;25.90;;;6.70;99.90;;;;;;5099168;28;20394;-82
2022/02/04 08:07:56;;;;;;;30.25;25.88;;;6.60;99.90;;;;;;5095067;28;20395;-82
2022/02/04 08:18:30;;;;;;;26.90;23.77;;;6.90;99.90;;;;;;5109184;28;20394;-82
2022/02/04 08:46:55;;;;;;;23.23;20.70;;;6.80;99.90;;;;;;5090628;28;20877;-82
2022/02/04 08:54:37;;;;;;;21.00;18.70;;;6.90;99.90;;;;;;5105975;28;20383;-81
2022/02/04 08:57:05;;;;;;;21.80;19.42;;;6.90;99.90;;;;;;5093228;28;20391;-81
2022/02/04 08:59:56;;;;;;;20.42;18.23;;;7.00;99.90;;;;;;5092611;28;20387;-82
2022/02/04 09:02:34;;;;;;;21.30;18.85;;;7.00;99.90;;;;;;5109825;28;20391;-82
2022/02/04 09:05:03;;;;;;;20.60;18.30;;;7.10;99.90;;;;;;5091712;28;20383;-82
2022/02/04 09:07:35;;;;;;;18.75;16.85;;;7.10;99.90;;;;;;5107945;28;20413;-81
2022/02/04 09:10:11;;;;;;;18.20;16.30;;;7.30;99.90;;;;;;5108270;28;20389;-82
2022/02/04 09:22:53;;;;;;;16.52;14.82;;;7.10;99.90;;;;;;5090554;28;20404;-83
2022/02/04 09:25:19;;;;;;;16.77;15.07;;;7.00;99.90;;;;;;5098051;28;20370;-83
2022/02/04 09:27:45;;;;;;;16.08;14.48;;;7.00;99.90;;;;;;5122234;28;21302;-83
2022/02/04 09:30:13;;;;;;;17.08;15.27;;;7.10;99.90;;;;;;5099263;28;20788;-83
2022/02/04 09:32:40;;;;;;;17.50;15.48;;;7.10;99.90;;;;;;5111626;28;20429;-83
2022/02/04 09:35:08;;;;;;;16.90;15.07;;;7.00;99.90;;;;;;5110828;28;20355;-83
2022/02/04 09:37:34;;;;;;;18.95;16.52;;;7.00;99.90;;;;;;5108212;28;20397;-84
2022/02/04 09:40:00;;;;;;;18.90;16.85;;;7.00;99.90;;;;;;5089997;28;20388;-83
2022/02/04 09:42:27;;;;;;;18.27;15.70;;;7.00;99.90;;;;;;5091926;28;20420;-83
2022/02/04 09:44:53;;;;;;;18.27;16.38;;;7.00;99.90;;;;;;5102721;28;20425;-83
2022/02/04 09:47:26;;;;;;;18.13;16.23;;;7.10;99.90;;;;;;5101683;28;20409;-83
2022/02/04 09:49:59;;;;;;;18.10;16.30;;;7.10;99.90;;;;;;5110251;28;20469;-84
2022/02/04 10:17:16;;;;;;;17.50;15.68;;;7.70;99.90;;;;;;5113868;27;20402;-84
2022/02/04 10:22:10;;;;;;;17.10;15.30;;;7.80;99.90;;;;;;5111718;28;20740;-82
2022/02/04 10:24:36;;;;;;;16.83;15.10;;;7.90;99.90;;;;;;5112009;28;20409;-82
2022/02/04 10:27:11;;;;;;;17.67;15.50;;;8.00;99.90;;;;;;5093959;28;20465;-82
2022/02/04 10:29:42;;;;;;;16.65;14.90;;;8.00;99.90;;;;;;5112258;28;20367;-81
2022/02/04 10:32:08;;;;;;;20.10;15.15;;;8.10;99.90;;;;;;5091303;28;20441;-81
2022/02/04 10:34:37;;;;;;;16.00;14.38;;;8.10;99.90;;;;;;5087664;28;20386;-81
2022/02/04 10:37:19;;;;;;;16.77;15.02;;;8.40;99.90;;;;;;5092936;28;20379;-80
2022/02/04 10:40:08;;;;;;;16.15;14.35;;;8.30;99.90;;;;;;5076792;28;20449;-82
2022/02/04 10:43:23;;;;;;;16.83;14.65;;;8.40;99.90;;;;;;5093997;28;20377;-81
2022/02/04 10:53:37;;;;;;;15.32;13.73;;;8.20;99.90;;;;;;5112698;28;20371;-81
2022/02/04 11:01:09;;;;;;;14.48;12.98;;;8.70;99.90;;;;;;5100772;28;20411;-83
2022/02/04 11:03:39;;;;;;;14.23;12.73;;;8.60;99.90;;;;;;5092297;28;20408;-83
2022/02/04 11:08:57;;;;;;;12.70;11.50;;;8.70;99.90;;;;;;5121411;27;20378;-82
2022/02/04 11:35:58;;;;;;;12.57;11.40;;;9.30;99.90;;;;;;5090267;28;20397;-82
2022/02/04 11:54:59;;;;;;;12.98;11.77;;;8.80;99.90;;;;;;5120378;27;20712;-81
2022/02/04 11:57:27;;;;;;;13.40;12.10;;;8.70;99.90;;;;;;5089640;28;20890;-82
2022/02/04 11:59:54;;;;;;;13.10;11.80;;;8.70;99.90;;;;;;5091198;28;20870;-81
2022/02/04 12:02:30;;;;;;;12.35;11.15;;;8.80;99.90;;;;;;5094894;27;20453;-81
2022/02/04 12:05:08;;;;;;;11.38;10.32;;;8.90;99.90;;;;;;5131416;27;20469;-82
2022/02/04 12:08:10;;;;;;;11.57;10.37;;;9.00;99.90;;;;;;5112969;27;20382;-81
2022/02/04 12:10:44;;;;;;;10.75;9.75;;;9.00;99.90;;;;;;5108674;28;20386;-82
2022/02/04 12:13:10;;;;;;;10.35;9.30;;;9.00;99.90;;;;;;5099617;28;20452;-81
2022/02/04 12:15:47;;;;;;;9.57;8.68;;;9.10;99.90;;;;;;5090475;28;20377;-82
2022/02/04 12:18:14;;;;;;;8.63;7.82;;;9.20;99.90;;;;;;5089147;28;20388;-83
2022/02/04 12:20:55;;;;;;;9.23;8.40;;;9.30;99.90;;;;;;5090320;28;20428;-81
2022/02/04 12:23:27;;;;;;;8.55;7.75;;;9.20;99.90;;;;;;5089869;28;20972;-81
2022/02/04 12:26:17;;;;;;;8.65;7.85;;;9.30;99.90;;;;;;5089056;28;20370;-81
2022/02/04 12:29:06;;;;;;;8.73;7.93;;;9.30;99.90;;;;;;5105060;28;20382;-81
2022/02/04 12:31:33;;;;;;;8.27;7.53;;;9.30;99.90;;;;;;5109778;28;20387;-82
2022/02/04 12:34:05;;;;;;;8.63;7.83;;;9.30;99.90;;;;;;5093415;28;20404;-80
2022/02/04 12:36:39;;;;;;;8.40;7.60;;;9.40;99.90;;;;;;5110356;28;20371;-81
2022/02/04 12:39:11;;;;;;;7.85;7.15;;;9.40;99.90;;;;;;5108541;28;20443;-81
2022/02/04 12:41:39;;;;;;;8.82;8.02;;;9.40;99.90;;;;;;5092380;28;20492;-83
2022/02/04 12:44:14;;;;;;;8.35;7.55;;;9.40;99.90;;;;;;5109627;28;20892;-81
2022/02/04 12:46:50;;;;;;;8.10;7.40;;;9.20;99.90;;;;;;5092003;28;20405;-81
2022/02/04 12:49:17;;;;;;;8.37;6.93;;;9.20;99.90;;;;;;5089358;28;20386;-81
2022/02/04 12:55:09;;;;;;;7.05;6.35;;;9.10;99.90;;;;;;5109495;28;20374;-82
2022/02/04 12:57:42;;;;;;;7.93;7.13;;;9.20;99.90;;;;;;5004964;28;20394;-81
2022/02/04 13:08:23;;;;;;;8.45;6.85;;;9.20;99.90;;;;;;5110099;28;20438;-81
2022/02/04 13:11:01;;;;;;;7.38;6.63;;;9.20;99.90;;;;;;5110476;28;20378;-81
2022/02/04 13:13:39;;;;;;;7.93;7.15;;;9.20;99.90;;;;;;5092398;28;20371;-82
2022/02/04 13:16:22;;;;;;;7.35;6.65;;;9.10;99.90;;;;;;5105457;28;20401;-82
2022/02/04 13:18:49;;;;;;;8.00;7.20;;;9.10;99.90;;;;;;5104128;27;20386;-83
2022/02/04 13:21:15;;;;;;;8.27;7.35;;;9.20;99.90;;;;;;5113888;28;20374;-82
2022/02/04 13:23:41;;;;;;;8.38;6.78;;;9.20;99.90;;;;;;5120044;27;20398;-81
2022/02/04 13:26:07;;;;;;;7.45;6.78;;;9.20;99.90;;;;;;5111936;28;20379;-83
2022/02/04 13:28:35;;;;;;;7.53;6.83;;;9.20;99.90;;;;;;5112296;28;20431;-81
2022/02/04 13:31:13;;;;;;;8.38;7.57;;;9.20;99.90;;;;;;5094133;28;20387;-81
2022/02/04 13:33:39;;;;;;;7.65;6.95;;;9.20;99.90;;;;;;5112692;28;20370;-80
2022/02/04 13:36:34;;;;;;;7.77;7.00;;;9.30;99.90;;;;;;5112728;28;20519;-81
2022/02/04 13:40:31;;;;;;;7.63;6.93;;;9.30;99.90;;;;;;5093610;28;20422;-80
2022/02/04 13:42:41;;;;;;;7.72;6.90;;;9.40;99.90;;;;;;5096689;28;20813;-81
2022/02/04 13:45:28;;;;;;;8.15;7.28;;;9.30;99.90;;;;;;5104099;28;20776;-82
2022/02/04 13:48:08;;;;;;;7.43;6.72;;;9.40;99.90;;;;;;5109953;28;20451;-81
2022/02/04 13:50:50;;;;;;;7.50;6.85;;;9.30;99.90;;;;;;5107318;28;20485;-81
2022/02/04 13:53:21;;;;;;;7.93;7.10;;;9.40;99.90;;;;;;5091899;28;20570;-80
2022/02/04 13:58:50;;;;;;;7.68;6.97;;;9.30;99.90;;;;;;5112888;28;20370;-81
2022/02/04 14:01:21;;;;;;;7.60;6.90;;;9.20;99.90;;;;;;5112655;28;20424;-82
2022/02/04 14:03:54;;;;;;;7.00;6.40;;;9.30;99.90;;;;;;5110225;28;20405;-80
2022/02/04 14:06:26;;;;;;;7.43;6.72;;;9.20;99.90;;;;;;5111727;28;20386;-81
2022/02/04 14:08:58;;;;;;;7.10;6.40;;;9.30;99.90;;;;;;5095603;28;20397;-81
2022/02/04 14:11:29;;;;;;;7.30;6.60;;;9.20;99.90;;;;;;5091541;28;20880;-81
2022/02/04 14:13:55;;;;;;;15.82;13.75;;;9.20;99.90;;;;;;5105605;28;20437;-83
2022/02/04 14:16:21;;;;;;;8.90;7.63;;;9.20;99.90;;;;;;5090713;28;20391;-83
2022/02/04 14:18:48;;;;;;;6.82;6.13;;;9.30;99.90;;;;;;5112632;28;20391;-82
2022/02/04 14:21:14;;;;;;;6.85;6.05;;;9.10;99.90;;;;;;5095044;28;20367;-84
2022/02/04 14:23:55;;;;;;;5.30;4.80;;;9.10;99.90;;;;;;5115878;27;20401;-85
2022/02/04 14:26:35;;;;;;;5.95;5.40;;;9.10;99.90;;;;;;5092140;28;20419;-82
2022/02/04 14:31:35;;;;;;;4.60;4.20;;;9.10;99.90;;;;;;5106405;27;20444;-83
2022/02/04 14:58:43;;;;;;;4.25;3.80;;;9.00;99.90;;;;;;5107672;28;20522;-82
2022/02/04 15:01:23;;;;;;;3.72;3.42;;;9.00;99.90;;;;;;5111555;28;20444;-83
2022/02/04 15:06:35;;;;;;;3.50;2.95;;;9.00;99.90;;;;;;5110227;28;20907;-81
2022/02/04 15:09:13;;;;;;;3.25;2.95;;;9.00;99.90;;;;;;5107246;28;20375;-83
2022/02/04 15:11:43;;;;;;;3.13;2.75;;;8.90;99.90;;;;;;5110803;28;20363;-81
2022/02/04 15:14:11;;;;;;;3.50;3.20;;;8.80;99.90;;;;;;5108522;28;20378;-84
2022/02/04 15:16:37;;;;;;;2.70;2.50;;;8.80;99.90;;;;;;5110767;28;20385;-83
2022/02/04 15:19:05;;;;;;;2.30;2.10;;;8.70;99.90;;;;;;5111855;28;20396;-82
2022/02/04 15:21:32;;;;;;;2.75;2.50;;;8.80;99.90;;;;;;5092546;28;20472;-82
2022/02/04 15:23:59;;;;;;;2.63;2.28;;;8.80;99.90;;;;;;5109524;28;20461;-83
2022/02/04 15:26:27;;;;;;;3.22;2.20;;;8.80;99.90;;;;;;5097276;27;21393;-83
2022/02/04 15:29:07;;;;;;;2.45;2.25;;;8.70;99.90;;;;;;5089396;28;20383;-83
2022/02/04 15:31:50;;;;;;;3.83;2.45;;;8.70;99.90;;;;;;5107699;28;20403;-84
2022/02/04 15:34:17;;;;;;;2.63;2.42;;;8.60;99.90;;;;;;5082811;28;20451;-83
2022/02/04 15:36:45;;;;;;;2.63;2.43;;;8.60;99.90;;;;;;5109949;28;20760;-83
2022/02/04 15:39:17;;;;;;;3.88;2.50;;;8.50;99.90;;;;;;5091412;28;20402;-83
2022/02/04 15:41:43;;;;;;;3.40;2.40;;;8.50;99.90;;;;;;5108930;28;20378;-84
2022/02/04 15:44:19;;;;;;;3.78;2.60;;;8.50;99.90;;;;;;5092328;28;20422;-82
2022/02/04 15:47:11;;;;;;;2.88;2.67;;;8.40;99.90;;;;;;5110716;28;20856;-84
2022/02/04 15:49:58;;;;;;;2.78;2.33;;;8.40;99.90;;;;;;5108299;28;20395;-84
2022/02/04 15:57:47;;;;;;;1.63;1.50;;;8.40;99.90;;;;;;5109066;28;20386;-83
2022/02/04 16:00:34;;;;;;;1.90;1.70;;;8.40;99.90;;;;;;5088513;28;20407;-83
2022/02/04 16:05:45;;;;;;;2.38;1.80;;;8.40;99.90;;;;;;5106589;28;20387;-83
2022/02/04 16:08:20;;;;;;;2.10;1.90;;;8.40;99.90;;;;;;5108324;28;20401;-83
2022/02/04 16:10:54;;;;;;;2.22;1.92;;;8.40;99.90;;;;;;5102920;28;20396;-83
2022/02/04 16:15:56;;;;;;;2.13;1.60;;;8.30;99.90;;;;;;5103825;28;20398;-82
2022/02/04 16:18:29;;;;;;;2.25;1.77;;;8.30;99.90;;;;;;5112108;28;20379;-83
2022/02/04 16:23:48;;;;;;;3.28;1.73;;;8.30;99.90;;;;;;5088748;28;20408;-84
2022/02/04 16:28:48;;;;;;;1.95;1.85;;;8.30;99.90;;;;;;5111292;28;20391;-82
2022/02/04 16:31:17;;;;;;;2.33;1.80;;;8.20;99.90;;;;;;5078385;28;20450;-83
2022/02/04 16:33:44;;;;;;;1.73;1.53;;;8.30;99.90;;;;;;5090598;28;20501;-82
2022/02/04 16:36:14;;;;;;;1.90;1.70;;;8.40;99.90;;;;;;5092044;28;20382;-83
2022/02/04 16:38:55;;;;;;;2.30;1.83;;;8.30;99.90;;;;;;5092864;28;20410;-82
2022/02/04 16:41:29;;;;;;;2.28;1.77;;;8.20;99.90;;;;;;5072913;28;20874;-82
2022/02/04 16:43:55;;;;;;;3.50;2.17;;;8.10;99.90;;;;;;5073994;28;20414;-82
2022/02/04 16:46:21;;;;;;;2.65;2.00;;;8.20;99.90;;;;;;5111423;28;20756;-84
2022/02/04 16:48:46;;;;;;;1.90;1.75;;;8.10;99.90;;;;;;5092414;28;20911;-83
2022/02/04 16:51:13;;;;;;;2.00;1.80;;;8.10;99.90;;;;;;5074932;28;20463;-83
2022/02/04 16:53:42;;;;;;;2.20;1.90;;;8.10;99.90;;;;;;5101908;27;20378;-81
2022/02/04 16:56:08;;;;;;;1.88;1.60;;;8.10;99.90;;;;;;5114815;27;20383;-82
2022/02/04 16:58:34;;;;;;;1.70;1.60;;;8.00;99.90;;;;;;5114626;27;20375;-82
2022/02/04 17:00:59;;;;;;;1.83;1.73;;;8.10;99.90;;;;;;5094217;28;20386;-83
2022/02/04 17:03:25;;;;;;;2.10;1.90;;;8.10;99.90;;;;;;5094951;28;21080;-82
2022/02/04 17:05:56;;;;;;;2.20;2.00;;;8.10;99.90;;;;;;5111716;28;20979;-82
2022/02/04 17:08:46;;;;;;;2.10;1.88;;;8.00;99.90;;;;;;5111347;28;20385;-82
2022/02/04 17:11:11;;;;;;;2.20;2.00;;;8.00;99.90;;;;;;5106861;27;20523;-83
2022/02/04 17:13:38;;;;;;;2.72;2.20;;;8.00;99.90;;;;;;5093616;28;20459;-83
2022/02/04 17:16:04;;;;;;;2.47;2.25;;;8.00;99.90;;;;;;5127317;27;20474;-83
2022/02/04 17:18:35;;;;;;;1.80;1.70;;;8.00;99.90;;;;;;5115230;27;20429;-84
2022/02/04 17:21:01;;;;;;;2.00;1.90;;;8.00;99.90;;;;;;5104086;28;20386;-84
2022/02/04 17:23:31;;;;;;;2.50;1.70;;;8.00;99.90;;;;;;5122637;27;20401;-86
2022/02/04 17:25:58;;;;;;;2.45;1.73;;;7.90;99.90;;;;;;5107793;27;21091;-85
2022/02/04 17:28:30;;;;;;;2.20;2.00;;;8.00;99.90;;;;;;5095462;27;20410;-82
2022/02/04 17:30:56;;;;;;;2.10;1.90;;;7.90;99.90;;;;;;5122277;27;20491;-83
2022/02/04 17:33:23;;;;;;;2.53;2.20;;;7.90;99.90;;;;;;5122569;27;20533;-83
2022/02/04 17:35:49;;;;;;;2.20;2.00;;;7.90;99.90;;;;;;5115054;27;20512;-83
2022/02/04 17:38:15;;;;;;;2.47;2.25;;;7.90;99.90;;;;;;5126526;27;20483;-83
2022/02/04 17:40:41;;;;;;;2.35;2.05;;;7.90;99.90;;;;;;5116187;27;20760;-83
2022/02/04 17:43:07;;;;;;;2.30;2.00;;;7.90;99.90;;;;;;5120276;27;20414;-84
2022/02/04 17:45:33;;;;;;;2.83;2.10;;;7.90;99.90;;;;;;5124042;27;20365;-84
2022/02/04 17:48:11;;;;;;;2.30;2.10;;;7.90;99.90;;;;;;5094559;27;20387;-81
2022/02/04 17:53:24;;;;;;;2.15;1.95;;;7.90;99.90;;;;;;5122039;27;20455;-83
2022/02/04 17:56:03;;;;;;;2.05;1.90;;;7.90;99.90;;;;;;5096822;28;20387;-84
2022/02/04 17:58:44;;;;;;;2.65;2.10;;;7.90;99.90;;;;;;5099891;27;20396;-81
2022/02/04 18:01:22;;;;;;;1.92;1.65;;;7.90;99.90;;;;;;5110641;28;20549;-83
2022/02/04 18:08:59;;;;;;;1.83;1.65;;;7.90;99.90;;;;;;5096604;28;20403;-81
2022/02/04 18:11:26;;;;;;;1.73;1.63;;;8.00;99.90;;;;;;5080489;28;20401;-82
2022/02/04 18:13:53;;;;;;;2.05;1.85;;;8.10;99.90;;;;;;5088992;28;20418;-81
2022/02/04 18:16:19;;;;;;;2.10;1.85;;;8.00;99.90;;;;;;5104272;28;20461;-80
2022/02/04 18:18:45;;;;;;;2.30;2.10;;;8.00;99.90;;;;;;5099143;27;20868;-82
2022/02/04 18:21:10;;;;;;;3.33;3.03;;;8.10;99.90;;;;;;5103017;28;20383;-81
2022/02/04 18:23:36;;;;;;;2.40;2.20;;;8.00;99.90;;;;;;5088355;28;20524;-82
2022/02/04 18:26:02;;;;;;;2.05;1.85;;;8.00;99.90;;;;;;5107388;28;20382;-81
2022/02/04 18:28:29;;;;;;;1.88;1.70;;;7.90;99.90;;;;;;5102147;28;20375;-83
2022/02/04 18:30:55;;;;;;;2.30;1.70;;;8.00;99.90;;;;;;5101951;28;20385;-82
2022/02/04 18:33:21;;;;;;;2.10;1.70;;;8.00;99.90;;;;;;5102310;28;20455;-83
2022/02/04 18:35:55;;;;;;;2.50;1.90;;;7.90;99.90;;;;;;5097946;28;20371;-83
2022/02/04 18:38:49;;;;;;;2.00;1.40;;;7.90;99.90;;;;;;5091835;28;20420;-81
2022/02/04 18:43:59;;;;;;;2.08;1.88;;;7.90;99.90;;;;;;5107617;28;20394;-81
2022/02/04 18:49:50;;;;;;;1.77;1.48;;;7.80;99.90;;;;;;5104019;28;20390;-80
2022/02/04 18:54:54;;;;;;;2.00;1.45;;;7.70;99.90;;;;;;5104782;28;20388;-82
2022/02/04 18:57:22;;;;;;;1.63;1.50;;;7.80;99.90;;;;;;5102108;28;20386;-82
2022/02/04 18:59:55;;;;;;;1.40;1.30;;;7.70;99.90;;;;;;5086959;27;20480;-83
2022/02/04 19:02:24;;;;;;;1.50;1.40;;;7.70;99.90;;;;;;5085095;27;20385;-82
2022/02/04 19:05:18;;;;;;;1.90;1.10;;;7.70;99.90;;;;;;5084081;28;20407;-82
2022/02/04 19:10:03;;;;;;;1.37;1.27;;;7.60;99.90;;;;;;5102461;28;20509;-82
2022/02/04 19:12:36;;;;;;;1.40;1.30;;;7.70;99.90;;;;;;5080182;28;20400;-82
2022/02/04 19:17:52;;;;;;;1.70;1.60;;;7.70;99.90;;;;;;5096339;28;20435;-81
2022/02/04 19:20:33;;;;;;;1.60;1.50;;;7.80;99.90;;;;;;5075714;28;20759;-82
2022/02/04 19:23:03;;;;;;;1.75;1.60;;;7.70;99.90;;;;;;5075787;28;20383;-81
2022/02/04 19:25:34;;;;;;;1.50;1.40;;;7.60;99.90;;;;;;5090210;28;20408;-80
2022/02/04 19:28:00;;;;;;;2.10;1.80;;;7.60;99.90;;;;;;5069162;28;20474;-81
2022/02/04 19:30:26;;;;;;;2.13;1.97;;;7.70;99.90;;;;;;5091496;28;20949;-82